Time;durP1;ratioP1;P1;durP2;ratioP2;P2;SDS_P1;SDS_P2;PMS_P1;PMS_P2;Temp;Humidity;BMP_temperature;BMP_pressure;BME280_temperature;BME280_humidity;BME280_pressure;Samples;Min_cycle;Max_cycle;Signal;HPM_P1;HPM_P2
2020/12/28 00:03:37;;;;;;;38.02;14.00;;;;;;;1.17;68.33;98538.84;4843514;59;1134391;-88
2020/12/28 00:08:42;;;;;;;27.37;11.73;;;;;;;1.16;68.37;98535.05;4843605;59;1136464;-88
2020/12/28 00:13:49;;;;;;;33.67;12.05;;;;;;;1.13;68.46;98543.89;4862283;59;1136167;-88
2020/12/28 00:18:54;;;;;;;34.57;13.00;;;;;;;1.11;68.46;98525.41;4937499;60;21183;-88
2020/12/28 00:24:00;;;;;;;32.37;13.17;;;;;;;1.09;68.51;98519.02;4937615;60;21471;-88
2020/12/28 00:29:07;;;;;;;39.03;14.67;;;;;;;1.10;68.63;98509.44;4899345;59;1132368;-89
2020/12/28 00:34:13;;;;;;;34.27;11.70;;;;;;;1.07;68.71;98503.97;4815495;59;1136426;-88
2020/12/28 00:39:19;;;;;;;27.83;11.23;;;;;;;1.05;68.80;98496.77;4760284;60;1136184;-88
2020/12/28 00:44:24;;;;;;;35.10;14.53;;;;;;;1.02;69.06;98486.09;4743714;60;1136223;-88
2020/12/28 00:49:30;;;;;;;20.48;8.48;;;;;;;0.99;69.37;98482.41;4710261;61;1136551;-88
2020/12/28 00:54:36;;;;;;;30.77;13.23;;;;;;;0.97;69.60;98480.38;4719697;60;1139175;-88
2020/12/28 00:59:41;;;;;;;36.17;15.72;;;;;;;0.99;69.71;98475.06;4793278;59;1136332;-88
2020/12/28 01:04:48;;;;;;;28.83;12.33;;;;;;;1.00;69.95;98484.06;4827455;59;1136356;-88
2020/12/28 01:09:55;;;;;;;27.67;10.97;;;;;;;1.01;70.42;98471.89;4809115;59;1136187;-88
2020/12/28 01:15:00;;;;;;;59.13;19.00;;;;;;;1.06;70.47;98467.20;4810966;59;1136189;-88
2020/12/28 01:20:08;;;;;;;25.23;9.40;;;;;;;1.08;70.83;98458.78;4717479;60;1136252;-89
2020/12/28 01:25:15;;;;;;;26.73;10.83;;;;;;;1.09;71.55;98447.42;4811303;60;21187;-88
2020/12/28 01:30:22;;;;;;;54.10;18.27;;;;;;;1.18;71.57;98453.29;4769130;60;1132291;-88
2020/12/28 01:35:29;;;;;;;31.03;11.70;;;;;;;1.26;71.59;98448.34;4789885;60;1136214;-89
2020/12/28 01:40:35;;;;;;;30.17;11.88;;;;;;;1.32;71.80;98430.98;4780442;60;1136463;-88
2020/12/28 01:45:42;;;;;;;31.17;12.50;;;;;;;1.37;71.95;98421.07;4798407;60;1136253;-89
2020/12/28 01:50:50;;;;;;;32.17;12.53;;;;;;;1.41;72.15;98400.34;4872841;60;21200;-88
2020/12/28 01:56:00;;;;;;;41.33;14.13;;;;;;;1.44;71.90;98390.64;4800739;60;1132193;-89
2020/12/28 02:01:06;;;;;;;23.57;8.77;;;;;;;1.45;72.04;98381.89;4780838;60;1136467;-88
2020/12/28 02:06:14;;;;;;;10.73;5.63;;;;;;;1.46;72.71;98373.14;4857778;61;1132277;-88
2020/12/28 02:11:20;;;;;;;18.80;8.63;;;;;;;1.49;73.51;98373.75;4873509;61;21167;-88
2020/12/28 02:16:27;;;;;;;21.37;9.65;;;;;;;1.58;73.37;98368.30;4868513;60;1130104;-88
2020/12/28 02:21:40;;;;;;;18.37;8.10;;;;;;;1.62;73.53;98353.64;4792574;59;1134259;-88
2020/12/28 02:26:47;;;;;;;17.23;6.80;;;;;;;1.71;73.58;98341.20;4782752;61;1134153;-88
2020/12/28 02:31:53;;;;;;;14.77;7.30;;;;;;;1.80;73.76;98341.47;4785312;60;1134158;-88
2020/12/28 02:37:16;;;;;;;;;;;;;;;1.85;73.78;98324.98;4785266;61;1134313;-88
2020/12/28 02:42:29;;;;;;;17.20;7.67;;;;;;;1.93;74.03;98308.30;4724664;61;969632;-88
2020/12/28 02:47:53;;;;;;;19.52;8.38;;;;;;;1.99;74.26;98306.02;4813296;61;1130119;-89
2020/12/28 02:53:16;;;;;;;23.47;8.40;;;;;;;2.06;74.36;98309.82;4827045;61;21175;-88
2020/12/28 02:58:40;;;;;;;13.72;6.53;;;;;;;2.18;74.44;98301.98;4828322;61;21160;-89
2020/12/28 03:04:04;;;;;;;15.20;7.50;;;;;;;2.28;74.50;98279.46;4756777;61;1130123;-89
2020/12/28 03:09:28;;;;;;;16.75;8.00;;;;;;;2.38;74.12;98279.91;4724310;61;1134609;-88
2020/12/28 03:14:51;;;;;;;16.47;6.90;;;;;;;2.43;73.85;98272.55;4713891;61;1134253;-88
2020/12/28 03:20:10;;;;;;;13.73;6.80;;;;;;;2.42;74.40;98260.92;4498027;63;1134317;-89
2020/12/28 03:25:33;;;;;;;15.10;7.33;;;;;;;2.51;74.45;98254.95;4460709;63;1134359;-89
2020/12/28 03:30:57;;;;;;;12.90;6.08;;;;;;;2.59;74.16;98240.00;4619215;63;21234;-88
2020/12/28 03:36:16;;;;;;;18.73;8.40;;;;;;;2.58;74.14;98231.82;4423725;66;1130368;-89
2020/12/28 03:41:39;;;;;;;15.73;7.57;;;;;;;2.60;73.71;98230.72;4424324;66;1134288;-89
2020/12/28 03:47:02;;;;;;;21.67;8.23;;;;;;;2.59;73.56;98216.52;4389996;66;1134347;-89
2020/12/28 03:52:26;;;;;;;16.87;7.17;;;;;;;2.56;73.42;98208.94;4370926;66;1134479;-89
2020/12/28 03:57:49;;;;;;;20.80;10.03;;;;;;;2.51;73.41;98200.17;4518964;65;21217;-89
2020/12/28 04:03:12;;;;;;;21.70;9.40;;;;;;;2.45;73.39;98201.48;4476034;66;21174;-90
2020/12/28 04:08:36;;;;;;;13.58;6.60;;;;;;;2.44;73.52;98192.00;4462335;64;1130379;-89
2020/12/28 04:13:55;;;;;;;20.10;9.37;;;;;;;2.39;73.64;98177.22;4583333;62;1134275;-88
2020/12/28 04:19:00;;;;;;;18.52;8.63;;;;;;;2.38;73.68;98151.26;4502986;64;1134500;-88
2020/12/28 04:24:06;;;;;;;30.33;14.33;;;;;;;2.33;73.91;98143.80;4567637;63;1134232;-88
2020/12/28 04:29:15;;;;;;;23.73;11.90;;;;;;;2.29;73.99;98142.39;4532089;63;1136439;-89
2020/12/28 04:34:21;;;;;;;31.90;11.73;;;;;;;2.29;74.05;98134.56;4614885;62;1136481;-89
2020/12/28 04:39:27;;;;;;;33.43;14.20;;;;;;;2.25;74.15;98121.92;4638156;61;1136598;-89
2020/12/28 04:44:33;;;;;;;23.60;11.27;;;;;;;2.25;74.23;98114.10;4691945;62;1136456;-89
2020/12/28 04:49:38;;;;;;;22.22;11.70;;;;;;;2.25;74.51;98116.23;4670236;60;1136466;-88
2020/12/28 04:54:49;;;;;;;28.53;13.13;;;;;;;2.20;74.59;98123.59;4684699;60;1136776;-88
2020/12/28 04:59:56;;;;;;;19.50;8.97;;;;;;;2.23;74.42;98124.66;4684484;60;1136443;-88
2020/12/28 05:05:10;;;;;;;17.17;9.43;;;;;;;2.19;74.65;98131.54;4702693;60;1134273;-89
2020/12/28 05:10:27;;;;;;;32.30;15.00;;;;;;;2.14;74.69;98114.95;4720634;61;1134304;-89
2020/12/28 05:15:32;;;;;;;33.53;15.20;;;;;;;2.09;74.73;98115.35;4684530;61;1136710;-88
2020/12/28 05:20:38;;;;;;;15.35;7.17;;;;;;;2.04;74.91;98131.00;4702874;61;1136188;-89
2020/12/28 05:25:46;;;;;;;21.00;9.73;;;;;;;2.02;74.96;98118.56;4685182;60;1134165;-89
2020/12/28 05:30:52;;;;;;;39.50;18.43;;;;;;;2.02;74.94;98126.39;4757063;61;1132166;-89
2020/12/28 05:35:57;;;;;;;46.37;26.53;;;;;;;2.04;75.05;98128.40;4816624;61;21301;-89
2020/12/28 05:41:07;;;;;;;21.33;9.93;;;;;;;2.05;75.15;98134.80;4820058;61;21155;-88
2020/12/28 05:46:24;;;;;;;23.62;10.58;;;;;;;2.05;75.31;98137.40;4796407;59;1129992;-87
2020/12/28 05:51:30;;;;;;;23.93;11.67;;;;;;;2.09;75.18;98127.08;4826012;61;21167;-88
2020/12/28 05:56:44;;;;;;;20.77;10.30;;;;;;;2.12;75.27;98140.35;4744030;60;1132471;-88
2020/12/28 06:01:50;;;;;;;17.13;9.33;;;;;;;2.17;75.10;98149.08;4727375;60;1136447;-89
2020/12/28 06:07:00;;;;;;;18.10;7.30;;;;;;;2.14;75.24;98141.53;4719188;60;1134825;-88
2020/12/28 06:12:11;;;;;;;15.67;7.57;;;;;;;2.11;75.17;98133.48;4753068;60;1134133;-88
2020/12/28 06:17:19;;;;;;;33.83;12.30;;;;;;;2.09;75.27;98140.59;4755383;60;1134585;-88
2020/12/28 06:22:25;;;;;;;23.13;10.10;;;;;;;2.06;75.35;98139.53;4720374;59;1136408;-88
2020/12/28 06:27:36;;;;;;;60.70;23.17;;;;;;;2.02;75.47;98122.48;4868413;59;1136393;-88
2020/12/28 06:32:43;;;;;;;75.10;30.43;;;;;;;2.01;75.51;98131.24;4730246;60;1136949;-88
2020/12/28 06:37:53;;;;;;;26.57;11.10;;;;;;;1.96;75.87;98122.52;4627399;61;1136388;-88
2020/12/28 06:43:20;;;;;;;10.47;5.97;;;;;;;1.97;76.06;98138.98;4824990;59;1136192;-88
2020/12/28 06:48:27;;;;;;;40.30;19.80;;;;;;;1.93;76.27;98134.95;4842564;61;1134360;-88
2020/12/28 06:53:36;;;;;;;21.33;9.33;;;;;;;1.96;76.12;98134.72;4801877;59;1136467;-88
2020/12/28 06:58:41;;;;;;;17.77;8.78;;;;;;;1.93;76.43;98145.38;4841960;60;1134341;-87
2020/12/28 07:03:49;;;;;;;17.47;8.00;;;;;;;1.92;76.64;98157.59;4901938;60;1134162;-87
2020/12/28 07:08:54;;;;;;;37.77;16.53;;;;;;;1.92;76.73;98158.06;4933089;60;21208;-86
2020/12/28 07:14:07;;;;;;;32.63;14.07;;;;;;;1.90;76.70;98152.14;4927182;59;21181;-87
2020/12/28 07:19:12;;;;;;;16.53;8.63;;;;;;;1.91;77.28;98136.38;4942645;60;21181;-87
2020/12/28 07:24:18;;;;;;;47.43;22.07;;;;;;;1.92;77.47;98128.09;4927631;60;21103;-86
2020/12/28 07:29:24;;;;;;;19.90;11.10;;;;;;;1.93;77.55;98108.42;4926810;60;21497;-87
2020/12/28 07:34:29;;;;;;;48.13;21.52;;;;;;;1.95;77.84;98113.03;4914128;60;1132212;-87
2020/12/28 07:39:36;;;;;;;22.13;9.53;;;;;;;1.97;77.85;98107.70;4845696;60;1136571;-87
2020/12/28 07:44:43;;;;;;;26.87;10.93;;;;;;;2.00;77.84;98112.17;4889572;60;1134209;-87
2020/12/28 07:49:50;;;;;;;19.87;7.53;;;;;;;2.07;77.91;98097.70;4938332;60;21161;-87
2020/12/28 07:55:08;;;;;;;18.63;8.90;;;;;;;2.10;78.03;98086.20;4932309;60;21284;-87
2020/12/28 08:00:17;;;;;;;14.23;6.77;;;;;;;2.09;78.52;98064.98;4937276;60;21539;-87
2020/12/28 08:05:24;;;;;;;28.07;11.90;;;;;;;2.16;78.27;98079.16;4940700;60;21158;-87
2020/12/28 08:10:30;;;;;;;19.60;9.53;;;;;;;2.20;78.19;98087.56;4943658;60;21508;-87
2020/12/28 08:15:35;;;;;;;22.87;10.63;;;;;;;2.24;78.33;98072.02;4903032;60;1130189;-87
2020/12/28 08:20:42;;;;;;;11.78;5.62;;;;;;;2.33;78.28;98073.38;4841407;60;1136216;-87
2020/12/28 08:25:47;;;;;;;13.27;7.13;;;;;;;2.39;78.26;98065.06;4896629;60;1134142;-86
2020/12/28 08:30:53;;;;;;;15.37;8.53;;;;;;;2.51;78.04;98038.41;4947609;60;21221;-87
2020/12/28 08:35:58;;;;;;;12.37;7.33;;;;;;;2.65;77.85;98043.30;4931874;60;21367;-87
2020/12/28 08:41:04;;;;;;;15.97;7.33;;;;;;;2.76;77.61;98041.89;4926116;60;21146;-86
2020/12/28 08:46:09;;;;;;;19.17;9.23;;;;;;;2.91;77.28;98050.20;4904169;60;21209;-87
2020/12/28 08:51:20;;;;;;;12.43;6.40;;;;;;;3.01;77.18;98051.08;4901654;60;1130085;-86
2020/12/28 08:56:26;;;;;;;12.47;7.00;;;;;;;3.08;76.74;98051.36;4845459;60;1134143;-87
2020/12/28 09:01:31;;;;;;;23.27;9.67;;;;;;;3.13;76.60;98056.55;4903678;60;21154;-87
2020/12/28 09:06:41;;;;;;;15.07;6.97;;;;;;;3.18;76.67;98047.02;4923130;60;21161;-87
2020/12/28 09:11:47;;;;;;;12.30;6.27;;;;;;;3.23;76.59;98028.31;4905192;60;21223;-88
2020/12/28 09:16:53;;;;;;;15.80;8.57;;;;;;;3.32;76.52;98030.14;4964784;59;21418;-86
2020/12/28 09:21:59;;;;;;;17.40;8.57;;;;;;;3.38;76.54;98029.58;4930188;60;21249;-87
2020/12/28 09:27:07;;;;;;;26.83;12.23;;;;;;;3.44;76.54;98038.20;4975436;59;21258;-87
2020/12/28 09:32:12;;;;;;;42.97;16.00;;;;;;;3.55;76.23;98015.86;4924208;60;21539;-87
2020/12/28 09:37:18;;;;;;;15.67;8.67;;;;;;;3.67;76.29;98025.70;4919342;60;21153;-88
2020/12/28 09:42:25;;;;;;;13.73;7.27;;;;;;;3.75;75.88;98018.84;4857426;59;1130090;-88
2020/12/28 09:47:32;;;;;;;73.77;22.20;;;;;;;3.83;75.77;98009.81;4853646;60;1134582;-87
2020/12/28 09:52:38;;;;;;;232.03;79.53;;;;;;;3.91;75.75;98020.08;4870563;60;1136447;-86
2020/12/28 09:57:43;;;;;;;50.28;19.02;;;;;;;3.96;75.57;98025.25;4849786;60;1138621;-87
2020/12/28 10:02:49;;;;;;;87.83;31.27;;;;;;;4.04;75.09;98016.21;4924376;60;1134288;-87
2020/12/28 10:07:55;;;;;;;74.47;24.37;;;;;;;4.09;75.18;98004.86;4939522;60;21300;-87
2020/12/28 10:13:00;;;;;;;77.87;18.70;;;;;;;4.11;75.07;98009.47;4872560;59;1132022;-86
2020/12/28 10:18:29;;;;;;;130.93;25.30;;;;;;;4.15;74.34;98003.45;4927628;60;1134206;-86
2020/12/28 10:23:35;;;;;;;211.10;57.53;;;;;;;4.18;74.12;98007.93;4904035;59;1138640;-87
2020/12/28 10:28:41;;;;;;;369.33;69.57;;;;;;;4.15;74.11;97991.68;4708211;60;1138322;-86
2020/12/28 10:33:48;;;;;;;225.15;44.98;;;;;;;4.27;74.23;98004.97;4763659;61;1138401;-87
2020/12/28 10:39:02;;;;;;;257.47;45.43;;;;;;;4.32;74.05;98005.35;4750351;61;1138352;-86
2020/12/28 10:44:03;;;;;;;144.70;24.77;;;;;;;4.37;73.77;97980.08;4697688;61;1138268;-86
2020/12/28 10:49:09;;;;;;;156.80;28.80;;;;;;;4.43;73.64;97985.55;4807493;60;1138489;-86
2020/12/28 10:54:15;;;;;;;99.43;17.90;;;;;;;4.47;73.17;97991.33;4657203;61;1138500;-86
2020/12/28 10:59:21;;;;;;;105.23;22.93;;;;;;;4.51;73.02;97973.91;4588289;61;1136318;-86
2020/12/28 11:04:26;;;;;;;104.30;18.73;;;;;;;4.57;73.16;97965.48;4736147;61;1138820;-86
2020/12/28 11:09:32;;;;;;;109.10;18.67;;;;;;;4.59;72.68;97960.91;4715201;61;1137233;-86
2020/12/28 11:14:37;;;;;;;100.63;25.80;;;;;;;4.61;72.71;97956.84;4783644;62;21464;-86
2020/12/28 11:19:43;;;;;;;123.97;26.03;;;;;;;4.67;72.71;97954.14;4853630;61;21535;-86
2020/12/28 11:24:49;;;;;;;259.53;46.13;;;;;;;4.67;72.77;97937.95;4872348;61;21168;-86
2020/12/28 11:29:55;;;;;;;156.20;33.73;;;;;;;4.71;72.78;97934.56;4798492;60;1134254;-87
2020/12/28 11:35:00;;;;;;;118.73;23.63;;;;;;;4.76;72.76;97946.23;4779157;60;1140470;-86
2020/12/28 11:40:06;;;;;;;94.50;21.90;;;;;;;4.74;72.42;97932.45;4873204;59;1136505;-86
2020/12/28 11:45:12;;;;;;;81.07;16.13;;;;;;;4.73;72.69;97942.63;4937870;60;21435;-85
2020/12/28 11:50:17;;;;;;;24.17;9.00;;;;;;;4.73;72.44;97937.87;4937824;60;21113;-86
2020/12/28 11:55:23;;;;;;;130.43;24.80;;;;;;;4.74;72.50;97927.70;4937836;60;21212;-86
2020/12/28 12:00:29;;;;;;;228.70;43.87;;;;;;;4.71;72.29;97918.38;4937444;60;21105;-86
2020/12/28 12:05:36;;;;;;;231.50;43.07;;;;;;;4.70;72.53;97899.70;4937746;60;21129;-86
2020/12/28 12:10:42;;;;;;;91.43;19.70;;;;;;;4.69;72.62;97894.61;4937186;60;21105;-86
2020/12/28 12:15:50;;;;;;;30.67;11.00;;;;;;;4.67;72.76;97888.21;4937415;60;21125;-86
2020/12/28 12:20:56;;;;;;;43.63;16.23;;;;;;;4.70;72.64;97897.57;4937708;60;21169;-86
2020/12/28 12:26:02;;;;;;;55.37;13.43;;;;;;;4.68;72.76;97903.44;4918503;59;1132850;-86
2020/12/28 12:31:07;;;;;;;96.60;27.13;;;;;;;4.67;72.75;97920.94;4739066;60;1136192;-86
2020/12/28 12:36:14;;;;;;;53.03;12.87;;;;;;;4.73;73.00;97927.39;4741535;60;1136377;-86
2020/12/28 12:41:22;;;;;;;42.83;14.03;;;;;;;4.75;72.93;97926.73;4833560;61;21203;-86
2020/12/28 12:46:28;;;;;;;108.57;27.20;;;;;;;4.76;72.99;97923.15;4833650;61;21184;-86
2020/12/28 12:51:35;;;;;;;126.40;26.10;;;;;;;4.80;72.70;97911.42;4813363;61;21120;-87
2020/12/28 12:56:40;;;;;;;23.67;9.63;;;;;;;4.80;72.69;97916.66;4694844;63;21186;-88
2020/12/28 13:01:46;;;;;;;47.60;17.27;;;;;;;4.77;72.59;97916.46;4684940;61;1130120;-86
2020/12/28 13:06:51;;;;;;;24.63;10.90;;;;;;;4.80;72.55;97905.70;4671730;61;1136240;-87
2020/12/28 13:11:57;;;;;;;24.33;9.73;;;;;;;4.81;72.54;97908.66;4821664;61;21181;-88
2020/12/28 13:17:03;;;;;;;19.73;8.60;;;;;;;4.79;72.40;97912.39;4770830;62;21206;-87
2020/12/28 13:22:11;;;;;;;37.90;17.10;;;;;;;4.85;72.41;97923.60;4770208;62;21191;-86
2020/12/28 13:27:17;;;;;;;24.93;10.83;;;;;;;4.88;72.13;97922.83;4769324;61;1132146;-88
2020/12/28 13:32:22;;;;;;;87.03;27.47;;;;;;;4.89;72.15;97922.31;4776065;61;1136251;-88
2020/12/28 13:37:28;;;;;;;53.43;18.40;;;;;;;4.89;71.93;97919.70;4775848;61;1136283;-88
2020/12/28 13:42:33;;;;;;;48.40;15.97;;;;;;;4.90;72.19;97934.44;4840060;60;1132367;-88
2020/12/28 13:47:39;;;;;;;13.57;6.17;;;;;;;4.89;72.28;97930.17;4850991;61;21164;-87
2020/12/28 13:52:45;;;;;;;26.17;11.50;;;;;;;4.85;72.09;97933.59;4848870;61;21180;-88
2020/12/28 13:57:51;;;;;;;18.45;9.15;;;;;;;4.85;72.10;97934.90;4771998;61;1132506;-88
2020/12/28 14:02:56;;;;;;;39.93;19.37;;;;;;;4.87;72.00;97936.06;4768034;61;1136403;-88
2020/12/28 14:08:02;;;;;;;17.47;9.03;;;;;;;4.87;72.00;97936.06;4866241;61;21556;-89
2020/12/28 14:13:09;;;;;;;40.17;18.27;;;;;;;4.83;72.08;97949.10;4850030;61;21659;-88
2020/12/28 14:18:15;;;;;;;22.50;12.03;;;;;;;4.77;72.18;97954.42;4849238;61;21175;-88
2020/12/28 14:23:21;;;;;;;42.37;21.50;;;;;;;4.76;72.20;97955.88;4848869;61;21121;-88
2020/12/28 14:28:26;;;;;;;47.93;18.43;;;;;;;4.75;72.18;97958.16;4848986;61;21117;-88
2020/12/28 14:33:32;;;;;;;45.97;20.63;;;;;;;4.74;72.43;97960.44;4860581;61;21159;-88
2020/12/28 14:38:38;;;;;;;39.07;18.90;;;;;;;4.67;72.63;97956.76;4869717;61;21183;-88
2020/12/28 14:43:47;;;;;;;58.43;20.60;;;;;;;4.62;72.88;97969.45;4859480;60;21208;-87
2020/12/28 14:48:53;;;;;;;65.93;22.80;;;;;;;4.54;73.06;97962.33;4848918;61;21204;-87
2020/12/28 14:53:59;;;;;;;63.60;24.97;;;;;;;4.50;73.12;97968.33;4849265;61;21109;-87
2020/12/28 14:59:05;;;;;;;129.07;50.97;;;;;;;4.49;73.21;97962.75;4848493;61;21129;-87
2020/12/28 15:04:10;;;;;;;167.20;61.90;;;;;;;4.49;73.24;97956.69;4849194;61;21534;-87
2020/12/28 15:09:16;;;;;;;436.80;201.60;;;;;;;4.44;73.34;97968.88;4850472;61;21120;-87
2020/12/28 15:14:25;;;;;;;289.27;117.67;;;;;;;4.39;73.41;97966.37;4869455;61;21199;-87
2020/12/28 15:19:30;;;;;;;586.70;337.93;;;;;;;4.34;73.53;97961.56;4890328;60;21172;-87
2020/12/28 15:24:36;;;;;;;447.13;250.40;;;;;;;4.31;73.40;97959.70;4869254;61;21121;-88
2020/12/28 15:29:42;;;;;;;198.93;87.17;;;;;;;4.29;73.59;97952.47;4863361;61;21174;-89
2020/12/28 15:34:47;;;;;;;566.77;285.40;;;;;;;4.19;73.64;97957.75;4759990;60;1134349;-90
2020/12/28 15:39:54;;;;;;;498.77;190.77;;;;;;;4.07;73.78;97953.65;4779198;61;1140529;-91
2020/12/28 15:45:00;;;;;;;521.07;251.63;;;;;;;4.00;73.76;97953.38;4790569;60;1140548;-89
2020/12/28 15:50:06;;;;;;;346.07;102.27;;;;;;;4.00;73.92;97961.70;4780263;60;1142631;-88
2020/12/28 15:55:11;;;;;;;240.17;80.83;;;;;;;3.98;74.12;97962.32;4780944;60;1140686;-88
2020/12/28 16:00:17;;;;;;;435.17;120.80;;;;;;;3.92;74.28;97958.49;4782919;61;1138329;-89
2020/12/28 16:05:22;;;;;;;528.40;159.17;;;;;;;3.84;74.31;97951.33;4872155;61;21247;-89
2020/12/28 16:10:28;;;;;;;449.57;139.27;;;;;;;3.76;74.44;97937.33;4780163;60;1136315;-89
2020/12/28 16:15:33;;;;;;;340.67;130.67;;;;;;;3.74;74.38;97941.38;4798361;61;1140546;-88
2020/12/28 16:20:42;;;;;;;299.10;88.87;;;;;;;3.74;74.35;97956.23;4777206;61;1142626;-88
2020/12/28 16:25:46;;;;;;;298.62;126.10;;;;;;;3.71;74.72;97957.81;4781021;60;1138622;-90
2020/12/28 16:30:51;;;;;;;1999.90;913.60;;;;;;;3.65;74.91;97953.98;4817814;60;1140403;-89
2020/12/28 16:36:08;;;;;;;447.00;232.07;;;;;;;3.60;75.21;97952.73;4795673;60;1142675;-88
2020/12/28 16:41:21;;;;;;;346.93;128.80;;;;;;;3.56;75.19;97949.56;4780634;60;1140425;-88
2020/12/28 16:46:27;;;;;;;475.47;174.40;;;;;;;3.58;75.37;97939.80;4780747;60;1142948;-89
2020/12/28 16:51:32;;;;;;;207.47;78.23;;;;;;;3.58;75.57;97937.20;4777857;60;1140604;-87
2020/12/28 16:56:53;;;;;;;404.90;137.93;;;;;;;3.54;75.65;97943.65;4870698;60;21572;-88
2020/12/28 17:02:10;;;;;;;538.73;200.30;;;;;;;3.49;75.54;97940.64;4795647;61;1136228;-90
2020/12/28 17:07:16;;;;;;;1572.40;659.90;;;;;;;3.41;75.61;97938.70;4788636;61;1140587;-88
2020/12/28 17:12:22;;;;;;;701.93;305.37;;;;;;;3.41;75.61;97933.48;4747378;60;1142648;-89
2020/12/28 17:17:29;;;;;;;635.63;329.47;;;;;;;3.40;75.66;97926.60;4754218;62;1138481;-89
2020/12/28 17:22:35;;;;;;;323.67;148.57;;;;;;;3.36;75.86;97908.23;4703444;60;1141089;-88
2020/12/28 17:27:40;;;;;;;232.83;87.43;;;;;;;3.29;75.95;97916.30;4723479;60;1140353;-89
2020/12/28 17:33:12;;;;;;;250.67;102.80;;;;;;;3.19;76.20;97925.92;4727796;61;1138374;-88
2020/12/28 17:38:18;;;;;;;195.03;85.57;;;;;;;3.12;76.49;97900.82;4738664;60;1140441;-88
2020/12/28 17:43:25;;;;;;;99.13;36.60;;;;;;;3.11;76.73;97910.92;4752155;60;1140880;-88
2020/12/28 17:48:31;;;;;;;87.27;37.63;;;;;;;3.09;77.15;97932.42;4782053;61;1136515;-89
2020/12/28 17:53:39;;;;;;;91.40;42.10;;;;;;;3.00;77.92;97931.11;4696405;60;1136447;-87
2020/12/28 17:58:46;;;;;;;69.30;30.90;;;;;;;2.97;77.40;97950.47;4742696;61;1136159;-87
2020/12/28 18:03:53;;;;;;;42.60;19.25;;;;;;;2.96;77.34;97960.57;4706770;60;1136540;-87
2020/12/28 18:09:08;;;;;;;44.70;19.70;;;;;;;2.94;77.23;97953.83;4736051;61;1136222;-88
2020/12/28 18:14:14;;;;;;;38.83;15.90;;;;;;;2.89;76.93;97961.25;4779341;61;21191;-87
2020/12/28 18:19:19;;;;;;;48.50;19.13;;;;;;;2.85;76.30;97954.16;4709604;61;1132210;-87
2020/12/28 18:24:25;;;;;;;39.33;18.60;;;;;;;2.90;76.26;97954.59;4712610;60;1136326;-87
2020/12/28 18:29:31;;;;;;;52.77;21.50;;;;;;;2.87;75.98;97948.33;4732260;60;1136659;-87
2020/12/28 18:34:36;;;;;;;41.73;20.17;;;;;;;2.84;75.94;97956.42;4703136;60;1136480;-86
2020/12/28 18:39:45;;;;;;;45.67;19.13;;;;;;;2.79;75.70;97962.52;4762143;60;1134126;-89
2020/12/28 18:44:51;;;;;;;39.57;19.70;;;;;;;2.77;75.44;97961.81;4814226;60;1136327;-86
2020/12/28 18:50:15;;;;;;;116.93;51.43;;;;;;;2.73;75.42;97953.45;4697000;60;1136301;-87
2020/12/28 18:55:20;;;;;;;37.73;19.37;;;;;;;2.68;75.29;97954.80;4662756;62;1138525;-87
2020/12/28 19:00:28;;;;;;;44.63;22.10;;;;;;;2.65;75.11;97950.66;4728571;60;1136898;-87
2020/12/28 19:05:34;;;;;;;84.17;38.57;;;;;;;2.66;75.07;97941.05;4717521;60;1136378;-87
2020/12/28 19:10:40;;;;;;;177.17;61.10;;;;;;;2.61;75.05;97938.83;4715567;62;21189;-88
2020/12/28 19:15:45;;;;;;;403.40;150.47;;;;;;;2.55;74.85;97926.33;4716754;60;1134239;-87
2020/12/28 19:20:51;;;;;;;134.47;51.17;;;;;;;2.57;74.91;97910.06;4633900;61;1140642;-87
2020/12/28 19:25:56;;;;;;;90.00;39.20;;;;;;;2.55;74.79;97912.45;4617526;62;1138649;-86
2020/12/28 19:31:02;;;;;;;67.35;27.42;;;;;;;2.47;74.72;97918.31;4684167;60;1136669;-87
2020/12/28 19:36:07;;;;;;;63.87;28.70;;;;;;;2.41;74.66;97929.30;4727115;60;1136174;-87
2020/12/28 19:41:13;;;;;;;64.00;31.90;;;;;;;2.34;74.62;97927.68;4788050;60;1136245;-87
2020/12/28 19:46:22;;;;;;;143.22;58.05;;;;;;;2.32;74.76;97937.41;4801305;60;1136214;-87
2020/12/28 19:51:31;;;;;;;482.53;234.93;;;;;;;2.30;74.92;97935.88;4809646;59;1138428;-86
2020/12/28 19:56:40;;;;;;;212.27;118.53;;;;;;;2.26;74.79;97939.25;4902753;60;21103;-87
2020/12/28 20:01:48;;;;;;;100.53;48.30;;;;;;;2.24;74.96;97935.13;4846462;58;1136124;-87
2020/12/28 20:07:00;;;;;;;62.77;24.07;;;;;;;2.19;75.14;97925.07;4841348;60;1138572;-87
2020/12/28 20:12:05;;;;;;;62.17;30.73;;;;;;;2.17;75.32;97943.92;4902763;60;21150;-87
2020/12/28 20:17:11;;;;;;;107.30;41.40;;;;;;;2.17;75.20;97945.70;4910810;60;21173;-87
2020/12/28 20:22:16;;;;;;;70.07;25.87;;;;;;;2.14;75.39;97947.30;4829091;60;1134167;-87
2020/12/28 20:27:22;;;;;;;44.20;19.70;;;;;;;2.10;75.47;97944.94;4722871;60;1136124;-86
2020/12/28 20:32:28;;;;;;;56.30;24.80;;;;;;;2.14;75.54;97940.77;4916682;60;21166;-87
2020/12/28 20:37:34;;;;;;;63.73;26.83;;;;;;;2.16;75.66;97932.32;4841386;60;1132177;-87
2020/12/28 20:42:47;;;;;;;43.63;19.47;;;;;;;2.11;75.93;97930.95;4825393;59;1136505;-86
2020/12/28 20:47:52;;;;;;;37.20;17.57;;;;;;;2.15;75.84;97917.16;4863801;60;1138639;-86
2020/12/28 20:52:58;;;;;;;32.97;16.73;;;;;;;2.18;75.98;97905.64;4834594;60;1137434;-87
2020/12/28 20:58:09;;;;;;;58.10;26.77;;;;;;;2.15;76.20;97902.81;4885226;60;1136219;-86
2020/12/28 21:03:14;;;;;;;42.60;19.13;;;;;;;2.19;76.10;97904.69;4865039;59;1136184;-86
2020/12/28 21:08:20;;;;;;;44.80;19.50;;;;;;;2.21;76.09;97895.78;4848697;60;1136422;-86
2020/12/28 21:13:26;;;;;;;51.83;21.20;;;;;;;2.20;76.47;97898.05;4864806;60;1136258;-86
2020/12/28 21:18:31;;;;;;;41.00;17.83;;;;;;;2.23;76.62;97896.48;4847511;60;1136429;-86
2020/12/28 21:23:41;;;;;;;42.20;18.80;;;;;;;2.26;76.62;97878.45;4846630;59;1136430;-87
2020/12/28 21:28:47;;;;;;;44.33;18.47;;;;;;;2.27;76.83;97885.32;4790715;60;1136467;-87
2020/12/28 21:33:52;;;;;;;42.43;19.17;;;;;;;2.28;76.96;97879.16;4822900;60;1248478;-88
2020/12/28 21:38:58;;;;;;;37.93;16.60;;;;;;;2.32;76.88;97874.82;4786430;62;21270;-87
2020/12/28 21:44:03;;;;;;;40.33;17.65;;;;;;;2.35;76.88;97868.52;4846236;60;1132222;-87
2020/12/28 21:49:09;;;;;;;37.63;17.20;;;;;;;2.36;76.94;97864.48;4840731;59;1136240;-87
2020/12/28 21:54:14;;;;;;;36.40;15.83;;;;;;;2.38;76.91;97854.74;4832821;59;1136274;-87
2020/12/28 21:59:20;;;;;;;33.40;13.70;;;;;;;2.53;76.88;97852.58;4827369;60;1136375;-87
2020/12/28 22:04:26;;;;;;;42.57;18.70;;;;;;;2.60;76.76;97844.55;4810891;60;1136297;-87
2020/12/28 22:09:32;;;;;;;43.33;16.13;;;;;;;2.66;76.81;97844.02;4830982;59;1136345;-87
2020/12/28 22:14:37;;;;;;;32.70;12.53;;;;;;;2.75;76.60;97828.84;4826031;60;1136226;-87
2020/12/28 22:19:43;;;;;;;39.87;16.30;;;;;;;2.85;76.35;97824.13;4816515;60;1136230;-87
2020/12/28 22:24:48;;;;;;;43.93;16.73;;;;;;;2.92;76.30;97823.44;4818534;59;1136182;-87
2020/12/28 22:29:54;;;;;;;38.77;13.30;;;;;;;3.00;76.00;97820.98;4895493;60;21222;-87
2020/12/28 22:35:00;;;;;;;49.53;18.27;;;;;;;3.05;76.14;97800.52;4665788;61;1132354;-87
2020/12/28 22:40:14;;;;;;;42.07;15.13;;;;;;;3.12;75.80;97802.89;4757130;61;1136364;-88
2020/12/28 22:45:29;;;;;;;32.00;11.87;;;;;;;3.23;75.28;97787.55;4811153;59;1136772;-87
2020/12/28 22:50:40;;;;;;;35.23;12.80;;;;;;;3.31;75.15;97778.55;4727855;60;1136572;-88
2020/12/28 22:55:46;;;;;;;29.97;11.40;;;;;;;3.43;75.07;97785.73;4740999;60;1136406;-88
2020/12/28 23:00:51;;;;;;;26.67;12.20;;;;;;;3.54;74.36;97772.02;4781857;60;1136190;-87
2020/12/28 23:05:59;;;;;;;24.70;9.80;;;;;;;3.63;74.33;97761.20;4794142;61;1136720;-88
2020/12/28 23:11:05;;;;;;;24.50;10.23;;;;;;;3.69;74.14;97759.30;4757021;61;1134328;-88
2020/12/28 23:16:16;;;;;;;23.03;9.57;;;;;;;3.79;73.55;97766.65;4755743;61;1136508;-87
2020/12/28 23:21:24;;;;;;;14.60;7.17;;;;;;;3.87;73.50;97768.05;4795092;60;1134218;-87
2020/12/28 23:26:30;;;;;;;18.17;8.03;;;;;;;3.94;73.21;97761.77;4755737;61;1134295;-87
2020/12/28 23:31:35;;;;;;;26.17;9.20;;;;;;;4.03;73.11;97767.42;4801674;60;1134249;-88